createdAt,value
2019-03-19T00:00:16.609Z,0.70
2019-03-19T00:02:45.029Z,0.73
2019-03-19T00:05:13.540Z,0.63
2019-03-19T00:07:41.977Z,0.80
2019-03-19T00:10:10.590Z,0.73
2019-03-19T00:12:38.986Z,0.50
2019-03-19T00:15:10.009Z,0.80
2019-03-19T00:17:38.435Z,0.80
2019-03-19T00:20:16.659Z,0.67
2019-03-19T00:22:45.237Z,0.87
2019-03-19T00:25:13.655Z,0.80
2019-03-19T00:27:42.082Z,0.87
2019-03-19T00:30:13.611Z,1.10
2019-03-19T00:32:42.048Z,1.00
2019-03-19T00:35:10.651Z,0.90
2019-03-19T00:37:39.069Z,0.70
2019-03-19T00:40:10.136Z,0.97
2019-03-19T00:42:38.562Z,0.80
2019-03-19T00:45:14.410Z,0.53
2019-03-19T00:47:42.935Z,0.70
2019-03-19T00:50:12.995Z,0.70
2019-03-19T00:52:41.414Z,0.97
2019-03-19T00:55:10.056Z,0.77
2019-03-19T00:57:38.508Z,0.60
2019-03-19T01:00:09.962Z,0.87
2019-03-19T01:02:38.563Z,0.80
2019-03-19T01:05:08.403Z,1.10
2019-03-19T01:07:36.812Z,1.00
2019-03-19T01:10:13.418Z,0.90
2019-03-19T01:12:42.078Z,0.80
2019-03-19T01:15:12.444Z,0.73
2019-03-19T01:17:41.057Z,0.90
2019-03-19T01:20:14.470Z,0.70
2019-03-19T01:22:42.887Z,1.00
2019-03-19T01:25:11.857Z,0.83
2019-03-19T01:27:40.313Z,0.80
2019-03-19T01:30:11.958Z,0.57
2019-03-19T01:32:40.336Z,0.80
2019-03-19T01:35:08.748Z,0.70
2019-03-19T01:37:37.188Z,0.63
2019-03-19T01:40:08.272Z,0.80
2019-03-19T01:42:36.705Z,0.77
2019-03-19T01:45:08.169Z,0.80
2019-03-19T01:47:36.596Z,0.83
2019-03-19T01:50:07.618Z,0.90
2019-03-19T01:52:36.030Z,0.70
2019-03-19T01:55:06.894Z,0.83
2019-03-19T01:57:35.295Z,1.03
2019-03-19T02:00:05.738Z,0.80
2019-03-19T02:02:34.148Z,0.80
2019-03-19T02:05:02.602Z,1.10
2019-03-19T02:07:31.029Z,0.70
2019-03-19T02:09:59.459Z,0.80
2019-03-19T02:12:27.929Z,0.77
2019-03-19T02:14:56.334Z,1.27
2019-03-19T02:17:24.736Z,0.83
2019-03-19T02:19:53.168Z,0.97
2019-03-19T02:22:21.584Z,1.10
2019-03-19T02:24:50.014Z,0.80
2019-03-19T02:27:18.436Z,1.17
2019-03-19T02:29:46.866Z,0.77
2019-03-19T02:32:15.289Z,1.10
2019-03-19T02:34:43.711Z,1.07
2019-03-19T02:37:12.224Z,1.10
2019-03-19T02:39:40.610Z,0.93
2019-03-19T02:42:09.045Z,1.00
2019-03-19T02:44:37.495Z,0.80
2019-03-19T02:47:05.911Z,1.00
2019-03-19T02:49:34.357Z,0.80
2019-03-19T02:52:02.775Z,0.80
2019-03-19T02:54:31.188Z,0.83
2019-03-19T02:56:59.617Z,1.33
2019-03-19T02:59:28.056Z,0.97
2019-03-19T03:01:56.490Z,0.97
2019-03-19T03:04:24.902Z,1.00
2019-03-19T03:06:53.327Z,1.03
2019-03-19T03:09:21.758Z,1.00
2019-03-19T03:11:50.189Z,0.97
2019-03-19T03:14:18.606Z,1.10
2019-03-19T03:16:47.040Z,0.90
2019-03-19T03:19:15.489Z,1.00
2019-03-19T03:21:43.921Z,1.20
2019-03-19T03:24:12.364Z,1.30
2019-03-19T03:26:47.356Z,1.30
2019-03-19T03:29:10.919Z,1.10
2019-03-19T03:31:39.361Z,1.17
2019-03-19T03:34:07.763Z,1.03
2019-03-19T03:36:36.179Z,1.20
2019-03-19T03:39:07.131Z,1.17
2019-03-19T03:41:35.557Z,1.17
2019-03-19T03:44:04.040Z,1.10
2019-03-19T03:46:32.437Z,1.00
2019-03-19T03:49:00.976Z,1.20
2019-03-19T03:51:29.389Z,1.30
2019-03-19T03:53:57.797Z,1.67
2019-03-19T03:56:26.227Z,1.23
2019-03-19T03:59:00.484Z,1.27
2019-03-19T04:01:25.225Z,1.40
2019-03-19T04:03:53.631Z,1.03
2019-03-19T04:06:22.043Z,1.00
2019-03-19T04:08:50.475Z,1.00
2019-03-19T04:11:18.892Z,1.27
2019-03-19T04:13:47.333Z,1.20
2019-03-19T04:16:15.737Z,1.40
2019-03-19T04:18:44.193Z,1.23
2019-03-19T04:21:12.600Z,1.37
2019-03-19T04:23:41.056Z,1.20
2019-03-19T04:26:09.445Z,1.47
2019-03-19T04:28:37.902Z,1.07
2019-03-19T04:31:06.341Z,1.17
2019-03-19T04:33:34.761Z,1.33
2019-03-19T04:36:03.196Z,1.30
2019-03-19T04:38:31.632Z,1.50
2019-03-19T04:41:00.056Z,1.10
2019-03-19T04:43:28.499Z,1.20
2019-03-19T04:45:56.909Z,1.00
2019-03-19T04:48:25.318Z,1.10
2019-03-19T04:50:53.767Z,1.67
2019-03-19T04:53:24.156Z,1.43
2019-03-19T04:55:52.325Z,1.23
2019-03-19T04:58:20.728Z,1.33
2019-03-19T05:00:49.155Z,1.27
2019-03-19T05:03:17.561Z,1.43
2019-03-19T05:05:45.987Z,1.23
2019-03-19T05:08:14.389Z,1.17
2019-03-19T05:10:42.840Z,1.60
2019-03-19T05:13:11.269Z,1.40
2019-03-19T05:15:39.694Z,1.20
2019-03-19T05:18:08.104Z,1.67
2019-03-19T05:20:36.563Z,1.27
2019-03-19T05:23:04.991Z,1.43
2019-03-19T05:25:33.396Z,1.50
2019-03-19T05:28:01.834Z,1.50
2019-03-19T05:30:30.255Z,1.10
2019-03-19T05:32:58.748Z,1.17
2019-03-19T05:35:27.122Z,1.37
2019-03-19T05:37:55.546Z,1.30
2019-03-19T05:40:23.981Z,1.30
2019-03-19T05:42:52.413Z,1.40
2019-03-19T05:45:20.823Z,1.20
2019-03-19T05:47:49.241Z,1.37
2019-03-19T05:50:24.361Z,1.43
2019-03-19T05:52:52.769Z,1.10
2019-03-19T05:55:21.200Z,1.30
2019-03-19T05:57:50.472Z,1.47
2019-03-19T06:00:21.391Z,1.40
2019-03-19T06:02:49.796Z,1.13
2019-03-19T06:05:20.789Z,1.30
2019-03-19T06:07:48.343Z,1.40
2019-03-19T06:10:16.750Z,1.50
2019-03-19T06:12:45.205Z,1.13
2019-03-19T06:15:14.475Z,1.37
2019-03-19T06:17:42.877Z,1.20
2019-03-19T06:20:19.045Z,1.23
2019-03-19T06:22:47.647Z,1.43
2019-03-19T06:25:16.349Z,1.30
2019-03-19T06:27:44.793Z,1.10
2019-03-19T06:30:23.314Z,1.30
2019-03-19T06:32:51.744Z,1.30
2019-03-19T06:35:21.256Z,1.10
2019-03-19T06:37:49.669Z,1.10
2019-03-19T06:40:24.182Z,1.33
2019-03-19T06:42:52.597Z,0.90
2019-03-19T06:45:23.145Z,1.63
2019-03-19T06:47:51.857Z,1.20
2019-03-19T06:50:21.213Z,1.20
2019-03-19T06:52:49.624Z,1.20
2019-03-19T06:55:19.119Z,1.27
2019-03-19T06:57:47.606Z,1.10
2019-03-19T07:00:22.884Z,1.43
2019-03-19T07:02:51.290Z,1.63
2019-03-19T07:05:20.733Z,1.30
2019-03-19T07:07:49.174Z,1.40
2019-03-19T07:10:19.708Z,1.10
2019-03-19T07:12:48.128Z,1.20
2019-03-19T07:15:19.620Z,0.97
2019-03-19T07:17:48.120Z,1.50
2019-03-19T07:20:21.698Z,0.90
2019-03-19T07:22:50.201Z,1.20
2019-03-19T07:25:18.678Z,1.33
2019-03-19T07:27:47.117Z,1.30
2019-03-19T07:30:19.644Z,1.27
2019-03-19T07:32:48.058Z,1.40
2019-03-19T07:35:16.750Z,1.20
2019-03-19T07:37:45.293Z,1.50
2019-03-19T07:40:15.548Z,1.20
2019-03-19T07:42:44.053Z,1.40
2019-03-19T07:45:23.386Z,1.43
2019-03-19T07:47:51.830Z,1.37
2019-03-19T07:50:22.265Z,1.17
2019-03-19T07:52:51.007Z,1.20
2019-03-19T07:55:19.409Z,1.40
2019-03-19T07:57:47.834Z,1.20
2019-03-19T08:00:21.068Z,1.40
2019-03-19T08:02:49.473Z,1.30
2019-03-19T08:05:18.008Z,1.45
2019-03-19T08:07:46.656Z,1.30
2019-03-19T08:10:18.904Z,1.77
2019-03-19T08:12:47.408Z,1.42
2019-03-19T08:15:22.270Z,1.05
2019-03-19T08:17:50.686Z,1.40
2019-03-19T08:20:19.546Z,1.57
2019-03-19T08:22:48.040Z,1.60
2019-03-19T08:25:17.116Z,1.87
2019-03-19T08:27:45.631Z,2.20
2019-03-19T08:30:24.913Z,1.52
2019-03-19T08:32:53.580Z,1.67
2019-03-19T08:35:22.268Z,1.60
2019-03-19T08:37:50.684Z,1.65
2019-03-19T08:40:19.956Z,1.52
2019-03-19T08:42:48.405Z,1.50
2019-03-19T08:45:19.104Z,1.30
2019-03-19T08:47:47.525Z,1.52
2019-03-19T08:50:17.498Z,1.37
2019-03-19T08:52:45.988Z,1.27
2019-03-19T08:55:14.391Z,1.50
2019-03-19T08:57:42.824Z,1.60
2019-03-19T09:00:16.447Z,1.25
2019-03-19T09:02:44.888Z,1.75
2019-03-19T09:05:13.464Z,1.52
2019-03-19T09:07:41.877Z,1.67
2019-03-19T09:10:15.442Z,1.40
2019-03-19T09:12:43.860Z,1.60
2019-03-19T09:15:13.867Z,1.45
2019-03-19T09:17:42.382Z,1.72
2019-03-19T09:20:14.811Z,1.60
2019-03-19T09:22:43.320Z,1.35
2019-03-19T09:25:12.294Z,1.30
2019-03-19T09:27:40.882Z,1.25
2019-03-19T09:30:15.168Z,1.40
2019-03-19T09:32:43.568Z,1.30
2019-03-19T09:35:12.266Z,1.32
2019-03-19T09:37:44.543Z,1.37
2019-03-19T09:40:17.846Z,1.30
2019-03-19T09:42:46.531Z,1.40
2019-03-19T09:45:16.196Z,1.50
2019-03-19T09:47:44.786Z,1.70
2019-03-19T09:50:18.690Z,1.45
2019-03-19T09:52:47.164Z,1.85
2019-03-19T09:55:15.628Z,1.60
2019-03-19T09:57:44.032Z,1.37
2019-03-19T10:00:20.578Z,1.47
2019-03-19T10:02:49.166Z,1.20
2019-03-19T10:05:17.707Z,1.77
2019-03-19T10:07:46.383Z,1.50
2019-03-19T10:10:19.217Z,1.35
2019-03-19T10:12:47.720Z,1.52
2019-03-19T10:15:16.529Z,1.57
2019-03-19T10:17:44.903Z,1.37
2019-03-19T10:20:18.299Z,1.30
2019-03-19T10:22:46.928Z,1.27
2019-03-19T10:25:16.512Z,1.32
2019-03-19T10:27:44.966Z,1.40
2019-03-19T10:30:21.331Z,1.10
2019-03-19T10:32:49.842Z,1.00
2019-03-19T10:35:19.198Z,1.35
2019-03-19T10:37:47.713Z,1.30
2019-03-19T10:40:17.888Z,1.62
2019-03-19T10:42:46.367Z,1.32
2019-03-19T10:45:24.793Z,1.50
2019-03-19T10:47:53.399Z,1.50
2019-03-19T10:50:22.734Z,1.40
2019-03-19T10:52:51.159Z,1.45
2019-03-19T10:55:19.849Z,1.20
2019-03-19T10:57:48.229Z,1.60
2019-03-19T11:00:19.441Z,1.27
2019-03-19T11:02:48.110Z,1.30
2019-03-19T11:05:17.087Z,1.22
2019-03-19T11:07:45.499Z,1.20
2019-03-19T11:10:15.454Z,1.12
2019-03-19T11:12:44.401Z,1.85
2019-03-19T11:15:15.806Z,1.42
2019-03-19T11:17:44.213Z,1.30
2019-03-19T11:20:14.899Z,1.72
2019-03-19T11:22:43.375Z,1.30
2019-03-19T11:25:14.585Z,1.32
2019-03-19T11:27:43.482Z,1.42
2019-03-19T11:30:17.391Z,1.25
2019-03-19T11:32:45.997Z,1.25
2019-03-19T11:35:15.139Z,1.45
2019-03-19T11:37:43.643Z,1.30
2019-03-19T11:40:16.741Z,1.20
2019-03-19T11:42:45.334Z,1.10
2019-03-19T11:45:16.031Z,1.35
2019-03-19T11:47:44.539Z,1.20
2019-03-19T11:50:15.486Z,1.17
2019-03-19T11:52:43.980Z,1.22
2019-03-19T11:55:14.637Z,1.30
2019-03-19T11:57:43.062Z,1.30
2019-03-19T12:00:24.890Z,1.35
2019-03-19T12:02:53.309Z,1.75
2019-03-19T12:05:21.723Z,1.35
2019-03-19T12:07:50.145Z,0.93
2019-03-19T12:10:18.592Z,1.55
2019-03-19T12:12:47.029Z,1.10
2019-03-19T12:15:15.488Z,1.00
2019-03-19T12:17:43.929Z,1.20
2019-03-19T12:20:13.715Z,1.35
2019-03-19T12:22:42.184Z,1.40
2019-03-19T12:25:11.945Z,1.10
2019-03-19T12:27:40.476Z,1.25
2019-03-19T12:30:22.258Z,1.12
2019-03-19T12:32:47.725Z,1.20
2019-03-19T12:35:17.467Z,1.17
2019-03-19T12:37:45.899Z,1.12
2019-03-19T12:40:19.795Z,1.20
2019-03-19T12:42:48.230Z,1.15
2019-03-19T12:45:21.512Z,1.12
2019-03-19T12:47:50.087Z,1.25
2019-03-19T12:50:26.505Z,1.10
2019-03-19T12:52:54.982Z,1.55
2019-03-19T12:55:23.496Z,0.80
2019-03-19T12:57:51.944Z,1.32
2019-03-19T13:00:34.475Z,1.02
2019-03-19T13:02:59.779Z,1.45
2019-03-19T13:05:28.239Z,1.40
2019-03-19T13:07:56.668Z,1.10
2019-03-19T13:10:25.437Z,1.20
2019-03-19T13:12:53.902Z,1.20
2019-03-19T13:15:22.545Z,1.10
2019-03-19T13:17:50.996Z,1.05
2019-03-19T13:20:20.590Z,1.35
2019-03-19T13:22:49.304Z,1.30
2019-03-19T13:25:24.868Z,0.95
2019-03-19T13:27:53.458Z,1.12
2019-03-19T13:30:26.446Z,1.35
2019-03-19T13:32:54.858Z,1.30
2019-03-19T13:35:23.709Z,1.22
2019-03-19T13:37:52.152Z,1.12
2019-03-19T13:40:20.587Z,1.15
2019-03-19T13:42:49.081Z,1.05
2019-03-19T13:45:22.756Z,1.05
2019-03-19T13:47:51.159Z,1.10
2019-03-19T13:50:20.338Z,1.32
2019-03-19T13:52:48.767Z,1.10
2019-03-19T13:55:19.468Z,1.55
2019-03-19T13:57:47.969Z,1.10
2019-03-19T14:00:17.120Z,1.35
2019-03-19T14:02:45.744Z,1.40
2019-03-19T14:05:15.321Z,1.55
2019-03-19T14:07:43.993Z,1.72
2019-03-19T14:10:17.586Z,1.42
2019-03-19T14:12:46.217Z,2.37
2019-03-19T14:15:19.404Z,3.50
2019-03-19T14:17:47.870Z,4.33
2019-03-19T14:20:19.069Z,3.95
2019-03-19T14:22:47.763Z,4.33
2019-03-19T14:25:17.099Z,3.72
2019-03-19T14:27:45.959Z,2.98
2019-03-19T14:30:17.111Z,3.35
2019-03-19T14:32:45.735Z,5.15
2019-03-19T14:35:14.530Z,6.20
2019-03-19T14:37:43.253Z,8.55
2019-03-19T14:40:16.749Z,9.53
2019-03-19T14:42:45.283Z,12.43
2019-03-19T14:45:14.630Z,11.28
2019-03-19T14:47:43.230Z,11.80
2019-03-19T14:50:16.290Z,15.90
2019-03-19T14:52:44.955Z,19.40
2019-03-19T14:55:13.412Z,19.10
2019-03-19T14:57:41.826Z,20.55
2019-03-19T15:00:15.790Z,18.35
2019-03-19T15:02:44.331Z,18.92
2019-03-19T15:05:14.285Z,19.62
2019-03-19T15:07:42.856Z,21.27
2019-03-19T15:10:19.397Z,20.77
2019-03-19T15:12:47.911Z,20.02
2019-03-19T15:15:22.745Z,20.62
2019-03-19T15:17:52.488Z,19.62
2019-03-19T15:20:28.279Z,20.08
2019-03-19T15:22:56.788Z,18.92
2019-03-19T15:25:25.279Z,19.87
2019-03-19T15:27:53.900Z,19.77
2019-03-19T15:30:22.360Z,18.57
2019-03-19T15:32:50.798Z,19.07
2019-03-19T15:35:19.226Z,23.22
2019-03-19T15:37:47.806Z,22.70
2019-03-19T15:40:18.296Z,23.95
2019-03-19T15:42:46.749Z,21.82
2019-03-19T15:45:31.244Z,26.00
2019-03-19T15:47:59.698Z,22.65
2019-03-19T15:50:28.491Z,25.65
2019-03-19T15:52:56.946Z,27.00
2019-03-19T15:55:25.464Z,29.05
2019-03-19T15:57:53.908Z,27.25
2019-03-19T16:00:22.610Z,30.82
2019-03-19T16:02:51.371Z,30.80
2019-03-19T16:05:19.785Z,26.12
2019-03-19T16:07:48.291Z,25.50
2019-03-19T16:10:17.863Z,25.43
2019-03-19T16:12:46.315Z,27.58
2019-03-19T16:15:15.914Z,27.02
2019-03-19T16:17:44.397Z,27.48
2019-03-19T16:20:18.159Z,25.70
2019-03-19T16:22:46.622Z,25.77
2019-03-19T16:25:15.221Z,23.15
2019-03-19T16:27:43.715Z,25.12
2019-03-19T16:30:15.357Z,19.73
2019-03-19T16:32:44.028Z,19.98
2019-03-19T16:35:13.397Z,19.50
2019-03-19T16:37:42.482Z,22.30
2019-03-19T16:40:18.782Z,23.07
2019-03-19T16:42:47.306Z,21.82
2019-03-19T16:45:17.810Z,24.80
2019-03-19T16:47:45.921Z,24.47
2019-03-19T16:50:19.511Z,32.65
2019-03-19T16:52:48.016Z,36.17
2019-03-19T16:55:18.372Z,34.15
2019-03-19T16:57:46.890Z,30.02
2019-03-19T17:00:23.288Z,28.10
2019-03-19T17:02:51.731Z,31.50
2019-03-19T17:05:20.331Z,34.53
2019-03-19T17:07:48.778Z,38.25
2019-03-19T17:10:26.303Z,67.25
2019-03-19T17:12:54.759Z,50.20
2019-03-19T17:15:23.211Z,55.05
2019-03-19T17:17:51.716Z,46.42
2019-03-19T17:20:20.510Z,45.80
2019-03-19T17:22:48.937Z,36.50
2019-03-19T17:25:21.585Z,36.93
2019-03-19T17:27:50.007Z,41.65
2019-03-19T17:30:31.568Z,40.58
2019-03-19T17:33:00.141Z,37.48
2019-03-19T17:35:28.569Z,34.53
2019-03-19T17:37:57.006Z,36.08
2019-03-19T17:40:25.517Z,34.60
2019-03-19T17:42:53.936Z,33.85
2019-03-19T17:45:22.471Z,30.68
2019-03-19T17:47:50.903Z,32.48
2019-03-19T17:50:35.893Z,33.65
2019-03-19T17:53:04.487Z,31.60
2019-03-19T17:55:32.947Z,36.13
2019-03-19T17:58:01.369Z,39.83
2019-03-19T18:00:37.676Z,35.40
2019-03-19T18:03:06.106Z,36.35
2019-03-19T18:05:34.553Z,36.53
2019-03-19T18:08:02.992Z,38.75
2019-03-19T18:10:31.433Z,36.03
2019-03-19T18:12:59.893Z,33.65
2019-03-19T18:15:28.325Z,35.75
2019-03-19T18:17:56.825Z,37.08
2019-03-19T18:20:25.277Z,32.90
2019-03-19T18:22:53.929Z,32.63
2019-03-19T18:25:22.429Z,34.00
2019-03-19T18:27:50.875Z,29.80
2019-03-19T18:30:21.819Z,29.48
2019-03-19T18:32:50.260Z,30.08
2019-03-19T18:35:18.784Z,27.22
2019-03-19T18:37:47.312Z,26.25
2019-03-19T18:40:16.855Z,25.85
2019-03-19T18:42:45.474Z,30.52
2019-03-19T18:45:19.049Z,26.97
2019-03-19T18:47:47.714Z,27.30
2019-03-19T18:50:16.964Z,23.80
2019-03-19T18:52:45.382Z,28.50
2019-03-19T18:55:14.151Z,26.85
2019-03-19T18:57:42.771Z,24.05
2019-03-19T19:00:19.008Z,22.20
2019-03-19T19:02:50.267Z,23.18
2019-03-19T19:05:19.017Z,20.85
2019-03-19T19:07:47.705Z,22.37
2019-03-19T19:10:17.130Z,22.07
2019-03-19T19:12:45.587Z,28.50
2019-03-19T19:15:24.188Z,24.80
2019-03-19T19:17:52.675Z,26.23
2019-03-19T19:20:21.205Z,22.35
2019-03-19T19:22:50.002Z,22.87
2019-03-19T19:25:22.545Z,24.10
2019-03-19T19:27:50.979Z,23.73
2019-03-19T19:30:32.658Z,24.35
2019-03-19T19:33:02.480Z,41.08
2019-03-19T19:35:31.255Z,32.95
2019-03-19T19:37:59.676Z,35.88
2019-03-19T19:40:28.127Z,33.58
2019-03-19T19:42:56.563Z,36.28
2019-03-19T19:45:24.991Z,37.13
2019-03-19T19:47:53.505Z,36.35
2019-03-19T19:50:23.705Z,36.13
2019-03-19T19:52:52.337Z,38.60
2019-03-19T19:55:20.809Z,40.67
2019-03-19T19:57:49.332Z,38.35
2019-03-19T20:00:21.715Z,51.90
2019-03-19T20:02:50.196Z,52.48
2019-03-19T20:05:18.996Z,39.63
2019-03-19T20:07:47.503Z,36.53
2019-03-19T20:10:20.332Z,41.83
2019-03-19T20:12:48.752Z,38.88
2019-03-19T20:15:17.212Z,38.80
2019-03-19T20:17:45.714Z,36.53
2019-03-19T20:20:19.827Z,34.90
2019-03-19T20:22:48.286Z,34.23
2019-03-19T20:25:16.709Z,35.28
2019-03-19T20:27:45.203Z,35.23
2019-03-19T20:30:19.389Z,35.33
2019-03-19T20:32:47.891Z,30.45
2019-03-19T20:35:16.321Z,44.63
2019-03-19T20:37:44.926Z,28.92
2019-03-19T20:40:14.811Z,42.35
2019-03-19T20:42:43.334Z,33.20
2019-03-19T20:45:13.961Z,30.50
2019-03-19T20:47:42.373Z,27.85
2019-03-19T20:50:19.492Z,28.90
2019-03-19T20:52:47.982Z,28.77
2019-03-19T20:55:16.392Z,28.00
2019-03-19T20:57:44.848Z,28.20
2019-03-19T21:00:15.634Z,24.55
2019-03-19T21:02:44.328Z,25.52
2019-03-19T21:05:13.087Z,25.43
2019-03-19T21:07:41.542Z,23.10
2019-03-19T21:10:20.536Z,25.15
2019-03-19T21:12:49.443Z,22.37
2019-03-19T21:15:23.287Z,21.85
2019-03-19T21:17:51.793Z,21.30
2019-03-19T21:20:20.210Z,21.63
2019-03-19T21:22:48.698Z,20.23
2019-03-19T21:25:17.134Z,20.57
2019-03-19T21:27:45.545Z,20.17
2019-03-19T21:30:21.962Z,21.47
2019-03-19T21:32:50.679Z,19.73
2019-03-19T21:35:24.726Z,20.13
2019-03-19T21:37:53.172Z,20.40
2019-03-19T21:40:21.682Z,19.73
2019-03-19T21:42:50.275Z,17.57
2019-03-19T21:45:19.691Z,17.77
2019-03-19T21:47:48.192Z,16.83
2019-03-19T21:50:23.454Z,17.13
2019-03-19T21:52:51.903Z,16.43
2019-03-19T21:55:20.311Z,16.90
2019-03-19T21:57:48.770Z,15.60
2019-03-19T22:00:19.216Z,17.27
2019-03-19T22:02:47.843Z,14.97
2019-03-19T22:05:16.295Z,15.07
2019-03-19T22:07:44.781Z,14.40
2019-03-19T22:10:18.900Z,14.87
2019-03-19T22:12:49.252Z,14.83
2019-03-19T22:15:19.873Z,14.70
2019-03-19T22:17:48.420Z,14.87
2019-03-19T22:20:17.005Z,14.07
2019-03-19T22:22:45.425Z,13.20
2019-03-19T22:25:15.109Z,14.03
2019-03-19T22:27:43.795Z,13.27
2019-03-19T22:30:16.860Z,13.47
2019-03-19T22:32:45.378Z,14.03
2019-03-19T22:35:13.888Z,12.37
2019-03-19T22:37:42.309Z,13.37
2019-03-19T22:40:17.969Z,11.70
2019-03-19T22:42:46.764Z,11.70
2019-03-19T22:45:19.009Z,12.63
2019-03-19T22:47:47.783Z,12.33
2019-03-19T22:50:17.481Z,10.93
2019-03-19T22:52:45.962Z,11.77
2019-03-19T22:55:16.125Z,11.40
2019-03-19T22:57:44.640Z,10.77
2019-03-19T23:00:31.524Z,11.23
2019-03-19T23:03:00.005Z,10.53
2019-03-19T23:05:28.497Z,10.40
2019-03-19T23:07:56.934Z,10.70
2019-03-19T23:10:25.338Z,9.83
2019-03-19T23:12:53.856Z,10.10
2019-03-19T23:15:22.285Z,10.53
2019-03-19T23:17:50.798Z,9.47
2019-03-19T23:20:19.211Z,9.23
2019-03-19T23:22:47.616Z,8.67
2019-03-19T23:25:16.195Z,9.53
2019-03-19T23:27:44.612Z,9.30
2019-03-19T23:30:17.727Z,9.20
2019-03-19T23:32:46.143Z,9.80
2019-03-19T23:35:14.639Z,8.63
2019-03-19T23:37:43.059Z,9.40
2019-03-19T23:40:14.211Z,7.53
2019-03-19T23:42:42.624Z,8.03
2019-03-19T23:45:12.299Z,7.70
2019-03-19T23:47:40.709Z,8.43
2019-03-19T23:50:12.041Z,7.87
2019-03-19T23:52:40.474Z,7.90
2019-03-19T23:55:10.162Z,7.80
2019-03-19T23:57:38.576Z,7.90
